Time;durP1;ratioP1;P1;durP2;ratioP2;P2;SDS_P1;SDS_P2;PMS_P1;PMS_P2;Temp;Humidity;BMP_temperature;BMP_pressure;BME280_temperature;BME280_humidity;BME280_pressure;Samples;Min_cycle;Max_cycle;Signal;HPM_P1;HPM_P2
2023/04/10 00:00:02;;;;;;;;;2.00;2.00;;;;;20.22;52.28;101834.64;110244;1250;20776;-39
2023/04/10 00:02:30;;;;;;;;;1.00;1.00;;;;;20.22;52.43;101837.52;110192;1264;19559;-39
2023/04/10 00:04:57;;;;;;;;;1.00;1.00;;;;;20.22;52.32;101833.84;110214;1250;22357;-39
2023/04/10 00:07:25;;;;;;;;;2.00;2.00;;;;;20.23;52.15;101833.11;110231;1264;20572;-39
2023/04/10 00:09:52;;;;;;;;;1.00;1.00;;;;;20.21;52.19;101834.13;110244;1250;18509;-39
2023/04/10 00:12:20;;;;;;;;;1.00;1.00;;;;;20.21;52.17;101830.89;110219;1251;21345;-39
2023/04/10 00:14:48;;;;;;;;;2.00;2.00;;;;;20.22;52.38;101834.08;110259;1249;21014;-39
2023/04/10 00:17:15;;;;;;;;;1.00;1.00;;;;;20.21;52.08;101834.48;110192;1251;19606;-38
2023/04/10 00:19:42;;;;;;;;;2.00;2.00;;;;;20.21;52.30;101834.70;110214;1258;19932;-39
2023/04/10 00:22:10;;;;;;;;;1.00;1.00;;;;;20.22;52.29;101833.18;110188;1251;22042;-39
2023/04/10 00:24:37;;;;;;;;;1.00;1.00;;;;;20.21;52.29;101831.20;110212;1264;19612;-39
2023/04/10 00:27:05;;;;;;;;;2.00;1.00;;;;;20.21;52.14;101831.23;110128;1251;20051;-37
2023/04/10 00:29:32;;;;;;;;;1.00;1.00;;;;;20.22;52.30;101833.90;110192;1251;20995;-39
2023/04/10 00:31:59;;;;;;;;;2.00;2.00;;;;;20.22;52.33;101833.77;110218;1251;18257;-38
2023/04/10 00:34:27;;;;;;;;;1.00;1.00;;;;;20.21;52.30;101840.11;110123;1264;22226;-39
2023/04/10 00:36:54;;;;;;;;;1.00;1.00;;;;;20.21;52.35;101839.45;110215;1260;20671;-38
2023/04/10 00:39:22;;;;;;;;;1.00;1.00;;;;;20.21;52.28;101836.14;110250;1264;19586;-39
2023/04/10 00:41:49;;;;;;;;;2.00;2.00;;;;;20.21;52.19;101832.30;110209;1264;22204;-38
2023/04/10 00:44:16;;;;;;;;;1.00;1.00;;;;;20.20;52.26;101829.15;110210;1264;19362;-38
2023/04/10 00:46:44;;;;;;;;;1.00;1.00;;;;;20.21;52.13;101827.23;110207;1251;21748;-39
2023/04/10 00:49:11;;;;;;;;;2.00;2.00;;;;;20.21;52.37;101832.31;110203;1264;18640;-39
2023/04/10 00:51:40;;;;;;;;;2.00;2.00;;;;;20.22;52.23;101835.39;110196;1251;20798;-39
2023/04/10 00:54:09;;;;;;;;;1.00;1.00;;;;;20.21;52.38;101840.73;110205;1264;22312;-39
2023/04/10 00:56:36;;;;;;;;;2.00;1.00;;;;;20.20;52.23;101841.86;110208;1264;22454;-39
2023/04/10 00:59:04;;;;;;;;;2.00;1.00;;;;;20.20;52.30;101847.98;110228;1264;20713;-38
2023/04/10 01:01:31;;;;;;;;;1.00;1.00;;;;;20.21;52.46;101842.90;110183;1264;22301;-38
2023/04/10 01:03:59;;;;;;;;;1.00;1.00;;;;;20.20;52.20;101842.95;110225;1264;18781;-38
2023/04/10 01:06:26;;;;;;;;;1.00;1.00;;;;;20.20;52.29;101843.29;110254;1264;19358;-38
2023/04/10 01:08:54;;;;;;;;;1.00;1.00;;;;;20.20;52.30;101842.27;110220;1264;19585;-38
2023/04/10 01:11:23;;;;;;;;;1.00;1.00;;;;;20.20;52.31;101846.42;110222;1264;18586;-39
2023/04/10 01:13:50;;;;;;;;;1.00;1.00;;;;;20.20;52.35;101847.67;110174;1251;20857;-39
2023/04/10 01:16:18;;;;;;;;;1.50;1.50;;;;;20.20;52.17;101847.71;110200;1251;19610;-39
2023/04/10 01:18:45;;;;;;;;;2.00;2.00;;;;;20.19;52.38;101850.13;110203;1250;19968;-39
2023/04/10 01:21:12;;;;;;;;;1.00;1.00;;;;;20.20;52.26;101849.52;110217;1264;19256;-39
2023/04/10 01:23:41;;;;;;;;;1.00;1.00;;;;;20.19;52.43;101844.54;110183;1264;19609;-39
2023/04/10 01:26:08;;;;;;;;;2.00;2.00;;;;;20.19;52.18;101843.62;110215;1251;20053;-39
2023/04/10 01:28:36;;;;;;;;;2.00;2.00;;;;;20.19;52.20;101844.70;110194;1260;19770;-40
2023/04/10 01:31:03;;;;;;;;;1.00;1.00;;;;;20.19;52.08;101848.69;110223;1251;22591;-39
2023/04/10 01:33:30;;;;;;;;;1.00;1.00;;;;;20.19;52.16;101848.86;110212;1264;19907;-39
2023/04/10 01:35:58;;;;;;;;;1.50;1.50;;;;;20.19;52.34;101844.47;110174;1251;20875;-38
2023/04/10 01:38:27;;;;;;;;;1.00;1.00;;;;;20.19;52.05;101842.15;110238;1251;22902;-38
2023/04/10 01:40:54;;;;;;;;;1.00;1.00;;;;;20.18;52.26;101839.87;110220;1264;22790;-38
2023/04/10 01:43:21;;;;;;;;;1.00;1.00;;;;;20.18;52.17;101839.55;110221;1251;19343;-38
2023/04/10 01:45:49;;;;;;;;;1.00;1.00;;;;;20.19;52.12;101840.02;110197;1264;18373;-38
2023/04/10 01:48:17;;;;;;;;;1.00;1.00;;;;;20.18;52.10;101836.77;110203;1256;18468;-39
2023/04/10 01:50:45;;;;;;;;;2.00;2.00;;;;;20.18;52.18;101836.27;110211;1264;19309;-39
2023/04/10 01:53:12;;;;;;;;;1.00;1.00;;;;;20.18;52.32;101839.53;110201;1251;19628;-38
2023/04/10 01:55:40;;;;;;;;;1.00;1.00;;;;;20.19;52.28;101840.02;110144;1251;20624;-39
2023/04/10 01:58:07;;;;;;;;;1.00;1.00;;;;;20.19;52.23;101839.84;110159;1257;22629;-39
2023/04/10 02:00:35;;;;;;;;;1.00;1.00;;;;;20.18;52.15;101836.31;110226;1264;18451;-39
2023/04/10 02:03:03;;;;;;;;;1.00;1.00;;;;;20.18;52.24;101834.86;110236;1264;19950;-39
2023/04/10 02:05:30;;;;;;;;;2.00;2.00;;;;;20.18;52.25;101841.70;110227;1257;19808;-39
2023/04/10 02:07:58;;;;;;;;;2.00;2.00;;;;;20.18;52.20;101837.95;110175;1264;18356;-39
2023/04/10 02:10:25;;;;;;;;;1.00;1.00;;;;;20.17;52.08;101836.89;110233;1264;19986;-39
2023/04/10 02:12:55;;;;;;;;;2.00;2.00;;;;;20.17;52.15;101838.89;110188;1264;20715;-38
2023/04/10 02:15:22;;;;;;;;;1.00;1.00;;;;;20.17;52.02;101839.10;110216;1264;22678;-39
2023/04/10 02:17:50;;;;;;;;;2.00;2.00;;;;;20.18;52.25;101838.84;110184;1264;20001;-38
2023/04/10 02:20:18;;;;;;;;;1.00;1.00;;;;;20.16;52.17;101840.04;110193;1264;19455;-38
2023/04/10 02:22:46;;;;;;;;;2.00;1.00;;;;;20.16;52.40;101839.35;110248;1264;19573;-39
2023/04/10 02:25:13;;;;;;;;;1.00;1.00;;;;;20.17;52.28;101837.30;110185;1250;18602;-39
2023/04/10 02:27:40;;;;;;;;;1.00;1.00;;;;;20.17;52.09;101843.45;110232;1264;19378;-40
2023/04/10 02:30:08;;;;;;;;;2.00;1.00;;;;;20.17;52.31;101840.22;110206;1264;22755;-39
2023/04/10 02:32:35;;;;;;;;;2.00;2.00;;;;;20.16;52.25;101838.07;110185;1264;19981;-39
2023/04/10 02:35:03;;;;;;;;;1.00;1.00;;;;;20.15;52.10;101840.18;110194;1250;20622;-39
2023/04/10 02:37:31;;;;;;;;;1.00;1.00;;;;;20.16;52.35;101844.06;110205;1264;19599;-39
2023/04/10 02:39:59;;;;;;;;;1.00;1.00;;;;;20.16;52.23;101844.11;110206;1264;18826;-39
2023/04/10 02:42:27;;;;;;;;;1.00;1.00;;;;;20.16;52.26;101843.54;110201;1251;19482;-40
2023/04/10 02:44:54;;;;;;;;;1.00;1.00;;;;;20.16;52.09;101845.17;110264;1250;18414;-39
2023/04/10 02:47:22;;;;;;;;;1.00;1.00;;;;;20.16;52.33;101844.85;110209;1264;19979;-39
2023/04/10 02:49:50;;;;;;;;;1.00;1.00;;;;;20.15;52.15;101848.48;110234;1264;20740;-39
2023/04/10 02:52:17;;;;;;;;;1.00;1.00;;;;;20.15;52.34;101847.39;110216;1251;18360;-38
2023/04/10 02:54:45;;;;;;;;;1.00;1.00;;;;;20.15;52.34;101850.52;110192;1250;18644;-39
2023/04/10 02:57:12;;;;;;;;;2.00;1.00;;;;;20.15;52.27;101853.58;110198;1251;20703;-39
2023/04/10 02:59:40;;;;;;;;;2.50;2.50;;;;;20.16;52.15;101856.27;110213;1251;19605;-39
2023/04/10 03:02:07;;;;;;;;;1.00;1.00;;;;;20.16;52.24;101859.73;110203;1264;19883;-39
2023/04/10 03:04:35;;;;;;;;;1.00;1.00;;;;;20.16;52.21;101856.95;110216;1264;19382;-39
2023/04/10 03:07:02;;;;;;;;;1.00;1.00;;;;;20.15;52.13;101852.36;110206;1264;19809;-39
2023/04/10 03:09:29;;;;;;;;;1.00;1.00;;;;;20.15;52.22;101854.91;110172;1264;22318;-39
2023/04/10 03:11:57;;;;;;;;;1.00;1.00;;;;;20.15;52.19;101854.67;110206;1251;20791;-40
2023/04/10 03:14:24;;;;;;;;;2.00;1.00;;;;;20.15;52.10;101856.14;110215;1264;18260;-39
2023/04/10 03:16:52;;;;;;;;;2.00;2.00;;;;;20.14;52.21;101854.73;110183;1264;21471;-39
2023/04/10 03:19:19;;;;;;;;;1.00;1.00;;;;;20.15;52.33;101858.48;110188;1251;20712;-39
2023/04/10 03:21:47;;;;;;;;;1.00;1.00;;;;;20.14;52.11;101860.22;110233;1264;21566;-39
2023/04/10 03:24:14;;;;;;;;;1.00;1.00;;;;;20.15;52.22;101863.08;110236;1264;19937;-40
2023/04/10 03:26:42;;;;;;;;;1.00;1.00;;;;;20.14;52.33;101860.75;110195;1264;19364;-40
2023/04/10 03:29:09;;;;;;;;;1.00;1.00;;;;;20.14;52.22;101864.73;110200;1261;18482;-40
2023/04/10 03:31:36;;;;;;;;;1.00;1.00;;;;;20.14;52.35;101866.75;110184;1251;20054;-40
2023/04/10 03:34:04;;;;;;;;;1.00;1.00;;;;;20.14;52.33;101861.30;110204;1264;21179;-40
2023/04/10 03:36:31;;;;;;;;;1.00;1.00;;;;;20.15;52.09;101862.88;110185;1264;21834;-41
2023/04/10 03:38:59;;;;;;;;;1.00;1.00;;;;;20.14;52.15;101862.39;110199;1251;18598;-40
2023/04/10 03:41:26;;;;;;;;;1.00;1.00;;;;;20.14;52.21;101863.52;110216;1250;21894;-39
2023/04/10 03:43:54;;;;;;;;;2.00;1.00;;;;;20.14;52.28;101860.27;110214;1251;19612;-39
2023/04/10 03:46:21;;;;;;;;;1.00;1.00;;;;;20.14;52.16;101865.31;110176;1264;22838;-38
2023/04/10 03:48:51;;;;;;;;;2.00;1.00;;;;;20.14;52.20;101866.40;110237;1264;20591;-39
2023/04/10 03:51:19;;;;;;;;;1.00;1.00;;;;;20.13;52.22;101862.14;110209;1264;20439;-39
2023/04/10 03:53:46;;;;;;;;;1.00;1.00;;;;;20.13;52.40;101861.02;110193;1251;20378;-39
2023/04/10 03:56:14;;;;;;;;;2.00;1.00;;;;;20.13;52.33;101859.79;110203;1264;19496;-39
2023/04/10 03:58:41;;;;;;;;;1.00;1.00;;;;;20.13;52.17;101858.17;110220;1264;18375;-40
2023/04/10 04:01:09;;;;;;;;;1.00;1.00;;;;;20.14;52.27;101856.66;110193;1264;18554;-39
2023/04/10 04:03:36;;;;;;;;;1.00;1.00;;;;;20.14;52.19;101860.45;110216;1251;20869;-40
2023/04/10 04:06:03;;;;;;;;;1.00;1.00;;;;;20.13;52.27;101854.38;110196;1264;18521;-40
2023/04/10 04:08:31;;;;;;;;;1.00;1.00;;;;;20.13;52.28;101859.99;110211;1264;18594;-39
2023/04/10 04:10:58;;;;;;;;;1.00;1.00;;;;;20.13;52.24;101856.89;110212;1264;19661;-40
2023/04/10 04:13:26;;;;;;;;;1.00;1.00;;;;;20.13;52.13;101860.13;110212;1251;19622;-40
2023/04/10 04:15:53;;;;;;;;;1.00;1.00;;;;;20.14;52.12;101858.66;110215;1251;18512;-39
2023/04/10 04:18:20;;;;;;;;;1.00;1.00;;;;;20.13;52.24;101856.38;110201;1264;19343;-40
2023/04/10 04:20:48;;;;;;;;;1.50;1.50;;;;;20.12;52.14;101857.70;110209;1251;19701;-39
2023/04/10 04:23:16;;;;;;;;;2.00;2.00;;;;;20.13;52.22;101861.80;110108;1250;20118;-41
2023/04/10 04:25:44;;;;;;;;;1.00;1.00;;;;;20.13;52.28;101864.31;110230;1251;21957;-39
2023/04/10 04:28:12;;;;;;;;;2.00;1.00;;;;;20.14;52.32;101866.09;110210;1251;19699;-39
2023/04/10 04:30:40;;;;;;;;;2.00;2.00;;;;;20.13;52.10;101866.15;110211;1264;18627;-40
2023/04/10 04:33:07;;;;;;;;;1.00;1.00;;;;;20.13;52.18;101865.06;110190;1250;20745;-40
2023/04/10 04:35:34;;;;;;;;;1.00;1.00;;;;;20.13;52.05;101871.56;110186;1264;21906;-39
2023/04/10 04:38:02;;;;;;;;;2.00;2.00;;;;;20.13;52.25;101872.11;110171;1264;18788;-39
2023/04/10 04:40:29;;;;;;;;;1.00;1.00;;;;;20.12;52.20;101874.06;110191;1250;19347;-39
2023/04/10 04:42:57;;;;;;;;;2.00;1.00;;;;;20.14;52.24;101879.50;110180;1264;18834;-40
2023/04/10 04:45:24;;;;;;;;;1.00;1.00;;;;;20.13;52.20;101884.45;110191;1264;21577;-39
2023/04/10 04:47:52;;;;;;;;;1.00;1.00;;;;;20.13;52.13;101885.41;110194;1251;20862;-39
2023/04/10 04:50:19;;;;;;;;;2.00;1.00;;;;;20.13;52.07;101883.89;110104;1264;22985;-39
2023/04/10 04:52:46;;;;;;;;;1.00;1.00;;;;;20.13;52.21;101885.77;110111;1264;18610;-39
2023/04/10 04:55:14;;;;;;;;;1.00;1.00;;;;;20.12;52.28;101885.27;110227;1264;19365;-39
2023/04/10 04:57:41;;;;;;;;;1.00;1.00;;;;;20.12;52.15;101886.45;110231;1264;22671;-40
2023/04/10 05:00:09;;;;;;;;;2.50;2.50;;;;;20.15;52.13;101889.90;110213;1264;20140;-39
2023/04/10 05:02:36;;;;;;;;;1.50;1.50;;;;;20.17;52.33;101896.27;110211;1251;19484;-39
2023/04/10 05:05:04;;;;;;;;;1.00;1.00;;;;;20.19;52.56;101899.35;110154;1264;18557;-39
2023/04/10 05:07:31;;;;;;;;;1.00;1.00;;;;;20.21;52.58;101899.89;110196;1264;18600;-39
2023/04/10 05:09:59;;;;;;;;;4.00;2.00;;;;;20.20;52.56;101904.98;110075;1251;21260;-38
2023/04/10 05:12:26;;;;;;;;;1.00;1.00;;;;;20.20;52.90;101909.98;110199;1251;19606;-38
2023/04/10 05:14:54;;;;;;;;;1.67;1.67;;;;;20.19;52.88;101915.48;110163;1264;18571;-38
2023/04/10 05:17:21;;;;;;;;;1.00;1.00;;;;;20.18;52.82;101916.09;110222;1251;20757;-40
2023/04/10 05:19:49;;;;;;;;;1.00;1.00;;;;;20.19;52.66;101917.70;110196;1264;18358;-38
2023/04/10 05:22:16;;;;;;;;;2.00;1.00;;;;;20.18;52.86;101914.35;110167;1251;21743;-38
2023/04/10 05:24:44;;;;;;;;;1.00;1.00;;;;;20.18;52.94;101915.34;110168;1251;20769;-38
2023/04/10 05:27:11;;;;;;;;;1.00;1.00;;;;;20.18;53.01;101920.30;110198;1250;20939;-38
2023/04/10 05:29:38;;;;;;;;;1.00;1.00;;;;;20.18;52.99;101918.09;110222;1251;18499;-38
2023/04/10 05:32:06;;;;;;;;;1.00;1.00;;;;;20.17;52.96;101921.29;110192;1251;19331;-40
2023/04/10 05:34:33;;;;;;;;;1.00;1.00;;;;;20.18;52.75;101921.26;110179;1264;19535;-38
2023/04/10 05:37:01;;;;;;;;;1.00;1.00;;;;;20.18;52.80;101921.23;110193;1264;19939;-39
2023/04/10 05:39:28;;;;;;;;;1.00;1.00;;;;;20.19;52.85;101923.13;110216;1251;19344;-39
2023/04/10 05:41:57;;;;;;;;;1.00;1.00;;;;;20.20;52.99;101920.30;110194;1257;23808;-39
2023/04/10 05:44:24;;;;;;;;;1.00;1.00;;;;;20.22;52.98;101918.64;110224;1264;18582;-39
2023/04/10 05:46:52;;;;;;;;;1.00;1.00;;;;;20.25;53.01;101921.98;110222;1251;20770;-40
2023/04/10 05:49:19;;;;;;;;;1.50;1.50;;;;;20.26;52.93;101922.27;110236;1264;19523;-39
2023/04/10 05:51:49;;;;;;;;;1.00;1.00;;;;;20.26;52.96;101921.48;110220;1264;19936;-39
2023/04/10 05:54:17;;;;;;;;;1.00;1.00;;;;;20.27;53.00;101923.02;110179;1251;22802;-39
2023/04/10 05:56:44;;;;;;;;;1.00;1.00;;;;;20.27;52.99;101921.60;110211;1250;20628;-39
2023/04/10 05:59:12;;;;;;;;;1.00;1.00;;;;;20.28;52.94;101923.73;110216;1264;18800;-39
2023/04/10 06:01:39;;;;;;;;;1.00;1.00;;;;;20.28;52.86;101924.05;110254;1264;20755;-39
2023/04/10 06:04:07;;;;;;;;;1.00;1.00;;;;;20.28;52.78;101923.10;110198;1250;19612;-39
2023/04/10 06:06:35;;;;;;;;;1.33;1.33;;;;;20.27;52.93;101925.59;110245;1265;18617;-39
2023/04/10 06:09:02;;;;;;;;;1.00;1.00;;;;;20.29;52.97;101929.23;110218;1249;23387;-40
2023/04/10 06:11:29;;;;;;;;;1.00;1.00;;;;;20.28;52.90;101928.03;110206;1251;18451;-39
2023/04/10 06:13:57;;;;;;;;;2.00;2.00;;;;;20.28;53.26;101935.73;110214;1264;20017;-40
2023/04/10 06:16:25;;;;;;;;;2.00;2.00;;;;;20.30;53.01;101930.45;110246;1264;20935;-39
2023/04/10 06:18:53;;;;;;;;;2.00;2.00;;;;;20.30;52.93;101930.61;110188;1264;18393;-39
2023/04/10 06:21:20;;;;;;;;;8.00;7.00;;;;;20.29;53.02;101927.23;110255;1251;18964;-39
2023/04/10 06:23:48;;;;;;;;;13.00;11.00;;;;;20.25;53.59;101927.27;110185;1251;20979;-39
2023/04/10 06:26:15;;;;;;;;;13.00;13.00;;;;;20.21;53.34;101928.35;110196;1264;19614;-40
2023/04/10 06:28:43;;;;;;;;;11.00;10.00;;;;;20.20;53.07;101925.91;110266;1257;20562;-39
2023/04/10 06:31:11;;;;;;;;;11.00;11.00;;;;;20.17;52.06;101927.44;110296;1264;21972;-39
2023/04/10 06:33:38;;;;;;;;;13.00;13.00;;;;;20.15;50.79;101924.77;110272;1264;18560;-39
2023/04/10 06:36:06;;;;;;;;;11.00;10.00;;;;;20.13;49.94;101925.15;110296;1264;20017;-39
2023/04/10 06:38:36;;;;;;;;;13.00;13.00;;;;;20.11;49.89;101927.50;110248;1264;19422;-39
2023/04/10 06:41:04;;;;;;;;;13.00;13.00;;;;;20.11;49.66;101925.31;110186;1264;22075;-39
2023/04/10 06:43:32;;;;;;;;;11.50;9.50;;;;;20.18;49.74;101921.39;110197;1264;22244;-42
2023/04/10 06:45:59;;;;;;;;;7.00;7.00;;;;;20.24;50.17;101916.59;110225;1251;20821;-40
2023/04/10 06:48:27;;;;;;;;;10.50;10.00;;;;;20.32;51.00;101922.06;110190;1264;22484;-39
2023/04/10 06:50:54;;;;;;;;;8.00;8.00;;;;;20.39;51.37;101927.02;110105;1264;20263;-39
2023/04/10 06:53:22;;;;;;;;;7.00;7.00;;;;;20.44;51.68;101927.27;110256;1264;19379;-40
2023/04/10 06:55:49;;;;;;;;;5.00;5.00;;;;;20.46;51.84;101928.52;110210;1264;18480;-39
2023/04/10 06:58:17;;;;;;;;;7.00;6.00;;;;;20.49;51.98;101928.11;110193;1264;19964;-38
2023/04/10 07:00:44;;;;;;;;;8.00;7.00;;;;;20.51;52.31;101931.67;110168;1251;20747;-39
2023/04/10 07:03:11;;;;;;;;;7.00;7.00;;;;;20.53;52.31;101932.59;110231;1249;18538;-39
2023/04/10 07:05:39;;;;;;;;;7.50;7.50;;;;;20.52;52.35;101932.73;110275;1264;19945;-39
2023/04/10 07:08:07;;;;;;;;;6.00;5.00;;;;;20.49;52.08;101931.38;110201;1264;19337;-39
2023/04/10 07:10:35;;;;;;;;;5.00;5.00;;;;;20.50;52.37;101938.83;110164;1264;22718;-39
2023/04/10 07:13:02;;;;;;;;;4.00;4.00;;;;;20.54;52.59;101935.21;110183;1250;20256;-39
2023/04/10 07:15:30;;;;;;;;;4.67;4.00;;;;;20.53;52.79;101933.27;110158;1251;20748;-39
2023/04/10 07:17:57;;;;;;;;;4.00;4.00;;;;;20.57;52.93;101930.57;110215;1250;20972;-39
2023/04/10 07:20:25;;;;;;;;;5.00;4.50;;;;;20.62;53.23;101931.07;110204;1264;18605;-39
2023/04/10 07:22:52;;;;;;;;;5.00;4.00;;;;;20.66;53.31;101927.77;110188;1264;22111;-38
2023/04/10 07:25:20;;;;;;;;;4.00;4.00;;;;;20.66;53.41;101927.52;110232;1251;19631;-40
2023/04/10 07:27:48;;;;;;;;;2.00;2.00;;;;;20.68;53.45;101923.50;110222;1251;20092;-39
2023/04/10 07:30:15;;;;;;;;;4.00;4.00;;;;;20.71;53.34;101924.70;110201;1251;19229;-43
2023/04/10 07:32:43;;;;;;;;;4.00;4.00;;;;;20.72;53.27;101920.95;110198;1264;19619;-41
2023/04/10 07:35:11;;;;;;;;;4.50;4.00;;;;;20.71;53.27;101922.47;110201;1264;23380;-41
2023/04/10 07:37:40;;;;;;;;;11.00;8.00;;;;;20.66;53.02;101921.34;110216;1259;20930;-40
2023/04/10 07:40:07;;;;;;;;;11.00;11.00;;;;;20.61;51.01;101926.02;110220;1264;18499;-40
2023/04/10 07:42:34;;;;;;;;;18.00;17.00;;;;;20.58;50.07;101921.65;110207;1251;20148;-39
2023/04/10 07:45:02;;;;;;;;;16.00;13.00;;;;;20.55;48.79;101926.00;110212;1251;20739;-40
2023/04/10 07:47:30;;;;;;;;;15.00;15.00;;;;;20.50;47.78;101928.14;110173;1264;19941;-40
2023/04/10 07:49:57;;;;;;;;;14.00;13.50;;;;;20.46;47.11;101927.04;110150;1251;19000;-40
2023/04/10 07:52:24;;;;;;;;;13.00;13.00;;;;;20.47;46.60;101931.23;110196;1249;20897;-38
2023/04/10 07:54:52;;;;;;;;;13.00;13.00;;;;;20.41;46.19;101923.73;110099;1264;18568;-39
2023/04/10 07:57:19;;;;;;;;;11.00;11.00;;;;;20.42;46.37;101927.23;110154;1264;22466;-39
2023/04/10 07:59:47;;;;;;;;;20.00;16.00;;;;;20.42;45.83;101926.16;110203;1251;19678;-39
2023/04/10 08:02:14;;;;;;;;;17.00;14.00;;;;;20.40;45.41;101921.51;110210;1264;20127;-39
2023/04/10 08:04:42;;;;;;;;;19.00;17.00;;;;;20.40;44.85;101921.14;110197;1264;20499;-39
2023/04/10 08:07:10;;;;;;;;;16.00;14.00;;;;;20.35;44.42;101917.36;110243;1264;19358;-39
2023/04/10 08:09:37;;;;;;;;;16.50;16.00;;;;;20.38;44.31;101916.23;110182;1264;22671;-40
2023/04/10 08:12:04;;;;;;;;;19.00;16.00;;;;;20.38;44.19;101915.66;110172;1264;20070;-39
2023/04/10 08:14:32;;;;;;;;;14.67;13.33;;;;;20.38;43.80;101913.00;110213;1264;20690;-41
2023/04/10 08:17:00;;;;;;;;;16.00;16.00;;;;;20.38;43.67;101910.80;110200;1251;19571;-40
2023/04/10 08:19:27;;;;;;;;;17.00;16.00;;;;;20.36;43.39;101908.45;110192;1264;18702;-40
2023/04/10 08:21:54;;;;;;;;;11.00;11.00;;;;;20.37;43.47;101908.49;110210;1264;20982;-40
2023/04/10 08:24:22;;;;;;;;;11.00;11.00;;;;;20.37;43.04;101906.70;110167;1264;22935;-40
2023/04/10 08:26:49;;;;;;;;;16.50;15.00;;;;;20.36;42.86;101904.84;110215;1257;18715;-39
2023/04/10 08:29:17;;;;;;;;;16.00;14.00;;;;;20.36;42.70;101907.09;110066;1250;22353;-40
2023/04/10 08:31:44;;;;;;;;;16.00;15.00;;;;;20.37;42.40;101903.66;110192;1257;19916;-40
2023/04/10 08:34:12;;;;;;;;;18.00;15.50;;;;;20.38;42.44;101903.91;110196;1264;19052;-40
2023/04/10 08:36:39;;;;;;;;;16.00;16.00;;;;;20.36;42.38;101903.14;110183;1257;20743;-38
2023/04/10 08:39:07;;;;;;;;;17.00;16.00;;;;;20.34;42.28;101902.95;110182;1251;22170;-38
2023/04/10 08:41:34;;;;;;;;;14.00;14.00;;;;;20.36;42.43;101903.14;110149;1264;20218;-39
2023/04/10 08:44:02;;;;;;;;;16.00;14.00;;;;;20.37;42.27;101900.15;110145;1251;20801;-39
2023/04/10 08:46:29;;;;;;;;;14.00;13.00;;;;;20.36;42.40;101899.94;110217;1250;18580;-39
2023/04/10 08:48:56;;;;;;;;;15.33;15.33;;;;;20.37;42.23;101899.92;110253;1251;21409;-39
2023/04/10 08:51:25;;;;;;;;;14.00;14.00;;;;;20.38;42.21;101900.20;110187;1251;22350;-39
2023/04/10 08:53:52;;;;;;;;;13.00;11.00;;;;;20.38;42.16;101898.02;110111;1264;20242;-38
2023/04/10 08:56:20;;;;;;;;;16.00;15.00;;;;;20.38;42.28;101889.54;110224;1264;20047;-39
2023/04/10 08:58:48;;;;;;;;;16.67;16.00;;;;;20.38;42.31;101889.52;110199;1264;19310;-40
2023/04/10 09:01:16;;;;;;;;;16.00;13.00;;;;;20.39;42.13;101888.48;110170;1264;19969;-40
2023/04/10 09:03:43;;;;;;;;;11.00;11.00;;;;;20.41;42.14;101887.44;110175;1264;20273;-40
2023/04/10 09:06:10;;;;;;;;;16.00;14.00;;;;;20.42;42.27;101886.98;110198;1251;19463;-39
2023/04/10 09:08:38;;;;;;;;;14.00;13.50;;;;;20.42;42.27;101879.85;110230;1264;18596;-39
2023/04/10 09:11:05;;;;;;;;;15.00;14.00;;;;;20.44;42.21;101874.96;110136;1250;21996;-40
2023/04/10 09:13:33;;;;;;;;;13.00;11.00;;;;;20.45;42.39;101877.05;110227;1251;21008;-39
2023/04/10 09:16:00;;;;;;;;;13.00;11.00;;;;;20.45;42.39;101871.60;110126;1250;20051;-38
2023/04/10 09:18:28;;;;;;;;;10.00;10.00;;;;;20.44;42.34;101874.23;110156;1264;20164;-40
2023/04/10 09:20:55;;;;;;;;;10.67;10.33;;;;;20.44;42.54;101875.34;110222;1256;19621;-40
2023/04/10 09:23:23;;;;;;;;;10.00;10.00;;;;;20.45;42.57;101875.63;110179;1264;19970;-39
2023/04/10 09:25:50;;;;;;;;;11.00;11.00;;;;;20.43;42.52;101871.05;110215;1251;20345;-40
2023/04/10 09:28:17;;;;;;;;;10.00;10.00;;;;;20.41;42.50;101862.92;110199;1251;22813;-40
2023/04/10 09:30:45;;;;;;;;;11.00;10.00;;;;;20.41;42.42;101857.33;110197;1264;18642;-39
2023/04/10 09:33:12;;;;;;;;;13.00;13.00;;;;;20.42;42.43;101850.95;110177;1264;22690;-40
2023/04/10 09:35:40;;;;;;;;;11.00;10.00;;;;;20.40;42.39;101849.16;110225;1264;19345;-40
2023/04/10 09:38:07;;;;;;;;;13.00;13.00;;;;;20.40;42.56;101846.34;110257;1264;22711;-40
2023/04/10 09:40:35;;;;;;;;;14.00;14.00;;;;;20.37;42.57;101842.02;110211;1264;18723;-40
2023/04/10 09:43:02;;;;;;;;;13.50;11.00;;;;;20.37;42.63;101840.59;110204;1264;20770;-41
2023/04/10 09:45:30;;;;;;;;;14.00;13.00;;;;;20.37;42.61;101838.85;110190;1251;20042;-40
2023/04/10 09:47:57;;;;;;;;;18.00;16.00;;;;;20.39;42.80;101836.95;110210;1250;22303;-40
2023/04/10 09:50:25;;;;;;;;;16.50;15.00;;;;;20.39;42.88;101835.54;110219;1264;19413;-38
2023/04/10 09:52:52;;;;;;;;;16.00;14.00;;;;;20.43;43.13;101831.66;110189;1264;20024;-40
2023/04/10 09:55:19;;;;;;;;;13.00;11.00;;;;;20.44;43.14;101829.77;110213;1251;20204;-40
2023/04/10 09:57:47;;;;;;;;;16.00;14.00;;;;;20.42;43.28;101826.20;110215;1250;20681;-41
2023/04/10 10:00:14;;;;;;;;;11.00;11.00;;;;;20.45;43.51;101822.40;110199;1264;19971;-40
2023/04/10 10:02:42;;;;;;;;;14.00;11.00;;;;;20.46;43.38;101819.77;110188;1264;21561;-40
2023/04/10 10:05:10;;;;;;;;;13.00;13.00;;;;;20.46;43.61;101816.54;110215;1264;19584;-40
2023/04/10 10:07:37;;;;;;;;;13.00;11.00;;;;;20.46;43.49;101812.36;110205;1264;18895;-40
2023/04/10 10:10:04;;;;;;;;;16.00;16.00;;;;;20.47;43.37;101808.63;110219;1251;21943;-41
2023/04/10 10:12:32;;;;;;;;;13.00;13.00;;;;;20.46;43.70;101805.95;110138;1264;20741;-42
2023/04/10 10:15:00;;;;;;;;;16.00;16.00;;;;;20.46;43.79;101799.22;110209;1264;18795;-40
2023/04/10 10:17:27;;;;;;;;;14.00;13.00;;;;;20.47;43.85;101798.77;110140;1264;20232;-40
2023/04/10 10:19:55;;;;;;;;;13.00;12.00;;;;;20.46;43.71;101797.98;110214;1251;20984;-40
2023/04/10 10:22:23;;;;;;;;;14.00;13.00;;;;;20.48;43.78;101794.73;110205;1264;19970;-41
2023/04/10 10:24:55;;;;;;;;;13.00;13.00;;;;;20.49;43.95;101795.14;110239;1251;21438;-41
2023/04/10 10:27:22;;;;;;;;;11.00;11.00;;;;;20.50;43.81;101791.44;110192;1264;19334;-41
2023/04/10 10:29:50;;;;;;;;;16.00;14.67;;;;;20.48;43.97;101787.88;110211;1264;20029;-41
2023/04/10 10:32:17;;;;;;;;;12.33;12.33;;;;;20.49;43.82;101781.73;110200;1264;18835;-41
2023/04/10 10:34:46;;;;;;;;;13.00;11.00;;;;;20.48;43.86;101782.00;110223;1264;20719;-40
2023/04/10 10:37:13;;;;;;;;;14.00;13.50;;;;;20.47;43.87;101783.94;110277;1264;19941;-40
2023/04/10 10:39:40;;;;;;;;;10.00;10.00;;;;;20.46;43.89;101781.80;110200;1264;18824;-40
2023/04/10 10:42:08;;;;;;;;;13.00;13.00;;;;;20.46;43.77;101777.14;110160;1264;21732;-40
2023/04/10 10:44:36;;;;;;;;;14.00;14.00;;;;;20.43;43.64;101778.15;110190;1264;18574;-42
2023/04/10 10:47:03;;;;;;;;;11.00;10.50;;;;;20.41;43.90;101777.72;110212;1264;22594;-40
2023/04/10 10:49:31;;;;;;;;;14.00;13.00;;;;;20.42;43.75;101772.02;110196;1264;19360;-40
2023/04/10 10:51:58;;;;;;;;;11.00;11.00;;;;;20.41;43.48;101774.48;110163;1264;22805;-40
2023/04/10 10:54:25;;;;;;;;;14.00;13.00;;;;;20.39;43.54;101774.29;110175;1264;19983;-40
2023/04/10 10:56:53;;;;;;;;;10.00;10.00;;;;;20.37;43.45;101769.87;110171;1251;20793;-40
2023/04/10 10:59:20;;;;;;;;;13.50;12.00;;;;;20.39;43.82;101764.52;110197;1251;18585;-41
2023/04/10 11:01:48;;;;;;;;;14.00;13.00;;;;;20.40;43.72;101757.41;110190;1264;18696;-41
2023/04/10 11:04:16;;;;;;;;;13.00;11.00;;;;;20.42;43.81;101761.89;110178;1264;20824;-41
2023/04/10 11:06:43;;;;;;;;;11.00;11.00;;;;;20.40;43.63;101759.38;110185;1264;19890;-41
2023/04/10 11:09:11;;;;;;;;;10.00;10.00;;;;;20.41;43.70;101756.70;110194;1264;18722;-41
2023/04/10 11:11:38;;;;;;;;;15.00;14.00;;;;;20.40;43.65;101762.95;110244;1249;22480;-41